LEZG/ZAZ METAR and TAF weather

Enter ICAO airport designator
Station Type Date Time Source
LEZG METAR 2021/01/20 23:30 UTC NOAA

LEZG 202330Z 07003KT 7000 FEW007 SCT045 06/05 Q1009


Station Type Date Time Source
LEZG Decoded METAR 2021/01/20 23:30 UTC NOAA

Zaragoza / Aeropuerto, Spain (LEZG) 41-40N 001-01W 258M
Jan 20, 2021 - 06:30 PM EST / 2021.01.20 2330 UTC
Wind: from the ENE (070 degrees) at 3 MPH (3 KT):0
Visibility: 4 mile(s):0
Sky conditions: partly cloudy
Temperature: 42 F (6 C)
Dew Point: 41 F (5 C)
Relative Humidity: 93%
Pressure (altimeter): 29.80 in. Hg (1009 hPa)
ob: LEZG 202330Z 07003KT 7000 FEW007 SCT045 06/05 Q1009
cycle: 23

Station Type Date Time Source
LEZG TAF 2021/01/20 18:27 UTC NOAA

TAF LEZG 201700Z 2018/2118 10010KT 9999 FEW015 TX15/2114Z TN06/2106Z
BECMG 2100/2102 22015KT
TEMPO 2108/2118 24017G30KT

Example: see airport list